sensor_id;sensor_type;location;lat;lon;timestamp;P1;durP1;ratioP1;P2;durP2;ratioP2
43877;SDS011;29815;48.184;11.268;2023-08-21T00:01:49;11.05;;;9.40;;
43877;SDS011;29815;48.184;11.268;2023-08-21T00:04:18;9.82;;;8.85;;
43877;SDS011;29815;48.184;11.268;2023-08-21T00:06:48;14.90;;;9.63;;
43877;SDS011;29815;48.184;11.268;2023-08-21T00:09:18;13.93;;;11.00;;
43877;SDS011;29815;48.184;11.268;2023-08-21T00:11:49;11.75;;;9.68;;
43877;SDS011;29815;48.184;11.268;2023-08-21T00:14:19;12.68;;;11.05;;
43877;SDS011;29815;48.184;11.268;2023-08-21T00:16:49;10.20;;;9.23;;
43877;SDS011;29815;48.184;11.268;2023-08-21T00:19:19;10.95;;;9.88;;
43877;SDS011;29815;48.184;11.268;2023-08-21T00:21:48;12.30;;;9.55;;
43877;SDS011;29815;48.184;11.268;2023-08-21T00:24:18;11.57;;;9.85;;
43877;SDS011;29815;48.184;11.268;2023-08-21T00:26:49;10.02;;;8.93;;
43877;SDS011;29815;48.184;11.268;2023-08-21T00:29:19;11.77;;;9.82;;
43877;SDS011;29815;48.184;11.268;2023-08-21T00:31:49;10.82;;;9.70;;
43877;SDS011;29815;48.184;11.268;2023-08-21T00:34:21;12.75;;;11.32;;
43877;SDS011;29815;48.184;11.268;2023-08-21T00:36:51;9.75;;;8.75;;
43877;SDS011;29815;48.184;11.268;2023-08-21T00:39:21;11.45;;;10.35;;
43877;SDS011;29815;48.184;11.268;2023-08-21T00:41:52;11.52;;;10.32;;
43877;SDS011;29815;48.184;11.268;2023-08-21T00:44:22;11.65;;;9.88;;
43877;SDS011;29815;48.184;11.268;2023-08-21T00:46:51;10.88;;;9.65;;
43877;SDS011;29815;48.184;11.268;2023-08-21T00:49:21;13.20;;;10.68;;
43877;SDS011;29815;48.184;11.268;2023-08-21T00:51:51;11.15;;;9.70;;
43877;SDS011;29815;48.184;11.268;2023-08-21T00:54:22;10.90;;;9.90;;
43877;SDS011;29815;48.184;11.268;2023-08-21T00:56:53;10.85;;;9.77;;
43877;SDS011;29815;48.184;11.268;2023-08-21T00:59:23;11.43;;;8.95;;
43877;SDS011;29815;48.184;11.268;2023-08-21T01:01:53;10.20;;;9.20;;
43877;SDS011;29815;48.184;11.268;2023-08-21T01:04:22;10.45;;;8.80;;
43877;SDS011;29815;48.184;11.268;2023-08-21T01:06:52;10.07;;;8.77;;
43877;SDS011;29815;48.184;11.268;2023-08-21T01:09:23;11.43;;;9.48;;
43877;SDS011;29815;48.184;11.268;2023-08-21T01:12:06;13.13;;;10.07;;
43877;SDS011;29815;48.184;11.268;2023-08-21T01:14:50;8.88;;;7.97;;
43877;SDS011;29815;48.184;11.268;2023-08-21T01:17:27;12.43;;;11.15;;
43877;SDS011;29815;48.184;11.268;2023-08-21T01:19:59;10.80;;;9.70;;
43877;SDS011;29815;48.184;11.268;2023-08-21T01:22:34;10.73;;;8.73;;
43877;SDS011;29815;48.184;11.268;2023-08-21T01:25:08;11.35;;;10.25;;
43877;SDS011;29815;48.184;11.268;2023-08-21T01:27:38;10.73;;;9.63;;
43877;SDS011;29815;48.184;11.268;2023-08-21T01:30:12;11.35;;;9.82;;
43877;SDS011;29815;48.184;11.268;2023-08-21T01:32:48;11.07;;;9.20;;
43877;SDS011;29815;48.184;11.268;2023-08-21T01:35:27;9.80;;;8.85;;
43877;SDS011;29815;48.184;11.268;2023-08-21T01:38:01;12.30;;;11.15;;
43877;SDS011;29815;48.184;11.268;2023-08-21T01:40:33;11.57;;;10.38;;
43877;SDS011;29815;48.184;11.268;2023-08-21T01:43:03;10.93;;;9.93;;
43877;SDS011;29815;48.184;11.268;2023-08-21T01:45:32;10.35;;;9.35;;
43877;SDS011;29815;48.184;11.268;2023-08-21T01:48:02;11.15;;;10.05;;
43877;SDS011;29815;48.184;11.268;2023-08-21T01:50:32;12.27;;;9.93;;
43877;SDS011;29815;48.184;11.268;2023-08-21T01:53:02;12.65;;;9.15;;
43877;SDS011;29815;48.184;11.268;2023-08-21T01:55:33;11.45;;;10.25;;
43877;SDS011;29815;48.184;11.268;2023-08-21T01:58:03;11.30;;;10.20;;
43877;SDS011;29815;48.184;11.268;2023-08-21T02:00:33;9.80;;;8.90;;
43877;SDS011;29815;48.184;11.268;2023-08-21T02:03:02;12.07;;;10.88;;
43877;SDS011;29815;48.184;11.268;2023-08-21T02:05:36;11.80;;;9.95;;
43877;SDS011;29815;48.184;11.268;2023-08-21T02:08:09;10.82;;;9.75;;
43877;SDS011;29815;48.184;11.268;2023-08-21T02:10:50;11.77;;;9.88;;
43877;SDS011;29815;48.184;11.268;2023-08-21T02:13:20;11.68;;;10.32;;
43877;SDS011;29815;48.184;11.268;2023-08-21T02:15:50;11.65;;;10.35;;
43877;SDS011;29815;48.184;11.268;2023-08-21T02:18:19;11.48;;;10.32;;
43877;SDS011;29815;48.184;11.268;2023-08-21T02:20:49;12.52;;;11.23;;
43877;SDS011;29815;48.184;11.268;2023-08-21T02:23:18;11.35;;;10.25;;
43877;SDS011;29815;48.184;11.268;2023-08-21T02:25:49;13.02;;;11.73;;
43877;SDS011;29815;48.184;11.268;2023-08-21T02:28:20;13.65;;;12.20;;
43877;SDS011;29815;48.184;11.268;2023-08-21T02:30:49;12.68;;;11.00;;
43877;SDS011;29815;48.184;11.268;2023-08-21T02:33:19;12.65;;;11.35;;
43877;SDS011;29815;48.184;11.268;2023-08-21T02:35:48;13.05;;;10.93;;
43877;SDS011;29815;48.184;11.268;2023-08-21T02:38:18;12.65;;;11.45;;
43877;SDS011;29815;48.184;11.268;2023-08-21T02:40:49;14.73;;;12.13;;
43877;SDS011;29815;48.184;11.268;2023-08-21T02:43:19;11.50;;;10.40;;
43877;SDS011;29815;48.184;11.268;2023-08-21T02:45:49;12.90;;;11.15;;
43877;SDS011;29815;48.184;11.268;2023-08-21T02:48:18;12.20;;;10.95;;
43877;SDS011;29815;48.184;11.268;2023-08-21T02:50:48;13.55;;;12.10;;
43877;SDS011;29815;48.184;11.268;2023-08-21T02:53:17;12.50;;;11.25;;
43877;SDS011;29815;48.184;11.268;2023-08-21T02:55:47;12.80;;;11.43;;
43877;SDS011;29815;48.184;11.268;2023-08-21T02:58:18;12.05;;;10.77;;
43877;SDS011;29815;48.184;11.268;2023-08-21T03:00:48;12.38;;;10.85;;
43877;SDS011;29815;48.184;11.268;2023-08-21T03:03:17;11.65;;;10.55;;
43877;SDS011;29815;48.184;11.268;2023-08-21T03:05:47;12.20;;;10.55;;
43877;SDS011;29815;48.184;11.268;2023-08-21T03:08:17;15.32;;;12.95;;
43877;SDS011;29815;48.184;11.268;2023-08-21T03:10:46;13.50;;;12.05;;
43877;SDS011;29815;48.184;11.268;2023-08-21T03:13:17;12.40;;;10.77;;
43877;SDS011;29815;48.184;11.268;2023-08-21T03:15:47;13.25;;;10.85;;
43877;SDS011;29815;48.184;11.268;2023-08-21T03:18:17;12.27;;;10.98;;
43877;SDS011;29815;48.184;11.268;2023-08-21T03:20:47;12.77;;;10.77;;
43877;SDS011;29815;48.184;11.268;2023-08-21T03:23:16;11.88;;;10.63;;
43877;SDS011;29815;48.184;11.268;2023-08-21T03:25:46;11.45;;;10.35;;
43877;SDS011;29815;48.184;11.268;2023-08-21T03:28:17;12.32;;;11.05;;
43877;SDS011;29815;48.184;11.268;2023-08-21T03:30:46;11.13;;;10.07;;
43877;SDS011;29815;48.184;11.268;2023-08-21T03:33:17;11.40;;;10.32;;
43877;SDS011;29815;48.184;11.268;2023-08-21T03:35:46;12.80;;;10.65;;
43877;SDS011;29815;48.184;11.268;2023-08-21T03:38:24;13.45;;;11.02;;
43877;SDS011;29815;48.184;11.268;2023-08-21T03:40:54;11.43;;;10.27;;
43877;SDS011;29815;48.184;11.268;2023-08-21T03:43:25;11.02;;;10.10;;
43877;SDS011;29815;48.184;11.268;2023-08-21T03:45:54;13.48;;;10.98;;
43877;SDS011;29815;48.184;11.268;2023-08-21T03:48:24;13.20;;;11.98;;
43877;SDS011;29815;48.184;11.268;2023-08-21T03:50:54;12.90;;;10.95;;
43877;SDS011;29815;48.184;11.268;2023-08-21T03:53:23;12.30;;;11.02;;
43877;SDS011;29815;48.184;11.268;2023-08-21T03:55:53;11.60;;;10.40;;
43877;SDS011;29815;48.184;11.268;2023-08-21T03:58:22;11.43;;;10.10;;
43877;SDS011;29815;48.184;11.268;2023-08-21T04:00:54;11.02;;;9.93;;
43877;SDS011;29815;48.184;11.268;2023-08-21T04:03:24;12.30;;;11.05;;
43877;SDS011;29815;48.184;11.268;2023-08-21T04:05:55;13.23;;;10.48;;
43877;SDS011;29815;48.184;11.268;2023-08-21T04:08:26;18.40;;;10.50;;
43877;SDS011;29815;48.184;11.268;2023-08-21T04:10:55;11.75;;;9.38;;
43877;SDS011;29815;48.184;11.268;2023-08-21T04:15:59;11.68;;;10.52;;
43877;SDS011;29815;48.184;11.268;2023-08-21T04:18:28;11.90;;;10.80;;
43877;SDS011;29815;48.184;11.268;2023-08-21T04:21:08;11.15;;;10.05;;
43877;SDS011;29815;48.184;11.268;2023-08-21T04:23:38;13.18;;;11.77;;
43877;SDS011;29815;48.184;11.268;2023-08-21T04:26:07;11.32;;;10.13;;
43877;SDS011;29815;48.184;11.268;2023-08-21T04:28:38;11.32;;;10.23;;
43877;SDS011;29815;48.184;11.268;2023-08-21T04:31:09;11.70;;;10.40;;
43877;SDS011;29815;48.184;11.268;2023-08-21T04:33:38;12.00;;;10.73;;
43877;SDS011;29815;48.184;11.268;2023-08-21T04:36:13;11.82;;;10.63;;
43877;SDS011;29815;48.184;11.268;2023-08-21T04:38:47;12.10;;;9.93;;
43877;SDS011;29815;48.184;11.268;2023-08-21T04:41:16;12.57;;;11.20;;
43877;SDS011;29815;48.184;11.268;2023-08-21T04:43:48;12.88;;;11.52;;
43877;SDS011;29815;48.184;11.268;2023-08-21T04:46:18;13.63;;;12.27;;
43877;SDS011;29815;48.184;11.268;2023-08-21T04:48:49;12.63;;;11.43;;
43877;SDS011;29815;48.184;11.268;2023-08-21T04:51:19;13.65;;;12.13;;
43877;SDS011;29815;48.184;11.268;2023-08-21T04:53:48;12.73;;;11.50;;
43877;SDS011;29815;48.184;11.268;2023-08-21T04:56:21;12.35;;;11.23;;
43877;SDS011;29815;48.184;11.268;2023-08-21T04:58:52;12.73;;;11.48;;
43877;SDS011;29815;48.184;11.268;2023-08-21T05:01:24;17.00;;;13.52;;
43877;SDS011;29815;48.184;11.268;2023-08-21T05:03:54;13.55;;;12.23;;
43877;SDS011;29815;48.184;11.268;2023-08-21T05:06:24;12.95;;;11.55;;
43877;SDS011;29815;48.184;11.268;2023-08-21T05:08:54;11.07;;;9.90;;
43877;SDS011;29815;48.184;11.268;2023-08-21T05:11:24;14.32;;;11.43;;
43877;SDS011;29815;48.184;11.268;2023-08-21T05:13:55;13.15;;;11.48;;
43877;SDS011;29815;48.184;11.268;2023-08-21T05:16:28;14.85;;;11.05;;
43877;SDS011;29815;48.184;11.268;2023-08-21T05:18:57;11.52;;;10.35;;
43877;SDS011;29815;48.184;11.268;2023-08-21T05:21:27;11.30;;;10.20;;
43877;SDS011;29815;48.184;11.268;2023-08-21T05:23:57;12.43;;;10.90;;
43877;SDS011;29815;48.184;11.268;2023-08-21T05:26:28;11.75;;;10.30;;
43877;SDS011;29815;48.184;11.268;2023-08-21T05:28:59;14.05;;;10.00;;
43877;SDS011;29815;48.184;11.268;2023-08-21T05:31:28;12.85;;;10.02;;
43877;SDS011;29815;48.184;11.268;2023-08-21T05:33:58;11.75;;;10.55;;
43877;SDS011;29815;48.184;11.268;2023-08-21T05:36:29;13.63;;;10.60;;
43877;SDS011;29815;48.184;11.268;2023-08-21T05:39:01;11.65;;;10.45;;
43877;SDS011;29815;48.184;11.268;2023-08-21T05:41:35;10.82;;;9.77;;
43877;SDS011;29815;48.184;11.268;2023-08-21T05:44:06;11.85;;;9.85;;
43877;SDS011;29815;48.184;11.268;2023-08-21T05:46:35;12.32;;;9.65;;
43877;SDS011;29815;48.184;11.268;2023-08-21T05:49:05;10.75;;;9.65;;
43877;SDS011;29815;48.184;11.268;2023-08-21T05:51:35;9.98;;;9.05;;
43877;SDS011;29815;48.184;11.268;2023-08-21T05:54:05;9.52;;;8.60;;
43877;SDS011;29815;48.184;11.268;2023-08-21T05:56:35;11.07;;;9.73;;
43877;SDS011;29815;48.184;11.268;2023-08-21T05:59:09;9.57;;;8.57;;
43877;SDS011;29815;48.184;11.268;2023-08-21T06:01:39;9.85;;;8.77;;
43877;SDS011;29815;48.184;11.268;2023-08-21T06:04:09;9.32;;;8.35;;
43877;SDS011;29815;48.184;11.268;2023-08-21T06:06:45;9.90;;;8.90;;
43877;SDS011;29815;48.184;11.268;2023-08-21T06:09:14;10.23;;;9.27;;
43877;SDS011;29815;48.184;11.268;2023-08-21T06:11:45;10.50;;;9.02;;
43877;SDS011;29815;48.184;11.268;2023-08-21T06:14:15;10.00;;;8.25;;
43877;SDS011;29815;48.184;11.268;2023-08-21T06:16:45;11.57;;;9.00;;
43877;SDS011;29815;48.184;11.268;2023-08-21T06:19:15;10.73;;;9.10;;
43877;SDS011;29815;48.184;11.268;2023-08-21T06:21:44;12.18;;;9.93;;
43877;SDS011;29815;48.184;11.268;2023-08-21T06:24:14;9.68;;;8.73;;
43877;SDS011;29815;48.184;11.268;2023-08-21T06:26:43;10.27;;;9.18;;
43877;SDS011;29815;48.184;11.268;2023-08-21T06:29:13;9.85;;;8.85;;
43877;SDS011;29815;48.184;11.268;2023-08-21T06:31:44;14.90;;;9.40;;
43877;SDS011;29815;48.184;11.268;2023-08-21T06:34:14;11.20;;;8.85;;
43877;SDS011;29815;48.184;11.268;2023-08-21T06:36:44;12.40;;;9.48;;
43877;SDS011;29815;48.184;11.268;2023-08-21T06:39:13;13.00;;;9.02;;
43877;SDS011;29815;48.184;11.268;2023-08-21T06:41:43;10.77;;;9.23;;
43877;SDS011;29815;48.184;11.268;2023-08-21T06:44:19;9.52;;;8.57;;
43877;SDS011;29815;48.184;11.268;2023-08-21T06:46:49;9.82;;;8.82;;
43877;SDS011;29815;48.184;11.268;2023-08-21T06:49:19;10.10;;;8.40;;
43877;SDS011;29815;48.184;11.268;2023-08-21T06:51:49;10.43;;;8.93;;
43877;SDS011;29815;48.184;11.268;2023-08-21T06:54:18;9.13;;;8.15;;
43877;SDS011;29815;48.184;11.268;2023-08-21T06:56:48;13.25;;;9.80;;
43877;SDS011;29815;48.184;11.268;2023-08-21T06:59:17;11.18;;;8.75;;
43877;SDS011;29815;48.184;11.268;2023-08-21T07:01:48;9.93;;;8.70;;
43877;SDS011;29815;48.184;11.268;2023-08-21T07:04:19;8.10;;;7.40;;
43877;SDS011;29815;48.184;11.268;2023-08-21T07:06:48;9.52;;;7.43;;
43877;SDS011;29815;48.184;11.268;2023-08-21T07:09:18;9.68;;;8.23;;
43877;SDS011;29815;48.184;11.268;2023-08-21T07:11:48;13.68;;;8.95;;
43877;SDS011;29815;48.184;11.268;2023-08-21T07:14:17;9.27;;;8.38;;
43877;SDS011;29815;48.184;11.268;2023-08-21T07:16:48;11.25;;;8.25;;
43877;SDS011;29815;48.184;11.268;2023-08-21T07:19:18;9.23;;;8.43;;
43877;SDS011;29815;48.184;11.268;2023-08-21T07:21:47;8.73;;;7.82;;
43877;SDS011;29815;48.184;11.268;2023-08-21T07:24:17;11.55;;;7.45;;
43877;SDS011;29815;48.184;11.268;2023-08-21T07:26:46;9.80;;;8.30;;
43877;SDS011;29815;48.184;11.268;2023-08-21T07:29:16;8.93;;;8.02;;
43877;SDS011;29815;48.184;11.268;2023-08-21T07:31:46;10.57;;;8.77;;
43877;SDS011;29815;48.184;11.268;2023-08-21T07:34:16;8.38;;;7.57;;
43877;SDS011;29815;48.184;11.268;2023-08-21T07:36:45;9.77;;;8.30;;
43877;SDS011;29815;48.184;11.268;2023-08-21T07:39:15;15.60;;;8.93;;
43877;SDS011;29815;48.184;11.268;2023-08-21T07:41:44;10.95;;;7.78;;
43877;SDS011;29815;48.184;11.268;2023-08-21T07:44:14;8.93;;;8.13;;
43877;SDS011;29815;48.184;11.268;2023-08-21T07:46:44;9.15;;;8.25;;
43877;SDS011;29815;48.184;11.268;2023-08-21T07:49:14;9.23;;;8.32;;
43877;SDS011;29815;48.184;11.268;2023-08-21T07:51:44;10.38;;;7.47;;
43877;SDS011;29815;48.184;11.268;2023-08-21T07:54:14;8.48;;;7.65;;
43877;SDS011;29815;48.184;11.268;2023-08-21T07:56:43;11.40;;;8.10;;
43877;SDS011;29815;48.184;11.268;2023-08-21T07:59:13;9.05;;;8.07;;
43877;SDS011;29815;48.184;11.268;2023-08-21T08:01:42;8.80;;;7.80;;
43877;SDS011;29815;48.184;11.268;2023-08-21T08:04:12;9.85;;;8.43;;
43877;SDS011;29815;48.184;11.268;2023-08-21T08:06:44;8.25;;;7.43;;
43877;SDS011;29815;48.184;11.268;2023-08-21T08:09:13;10.48;;;9.43;;
43877;SDS011;29815;48.184;11.268;2023-08-21T08:11:43;10.73;;;9.18;;
43877;SDS011;29815;48.184;11.268;2023-08-21T08:14:13;8.00;;;7.20;;
43877;SDS011;29815;48.184;11.268;2023-08-21T08:16:42;7.43;;;6.72;;
43877;SDS011;29815;48.184;11.268;2023-08-21T08:19:12;8.90;;;8.00;;
43877;SDS011;29815;48.184;11.268;2023-08-21T08:21:43;8.20;;;7.50;;
43877;SDS011;29815;48.184;11.268;2023-08-21T08:24:12;7.18;;;6.53;;
43877;SDS011;29815;48.184;11.268;2023-08-21T08:26:42;9.38;;;6.88;;
43877;SDS011;29815;48.184;11.268;2023-08-21T08:29:11;8.65;;;7.78;;
43877;SDS011;29815;48.184;11.268;2023-08-21T08:31:41;8.43;;;7.60;;
43877;SDS011;29815;48.184;11.268;2023-08-21T08:34:10;8.48;;;7.65;;
43877;SDS011;29815;48.184;11.268;2023-08-21T08:36:40;8.48;;;7.32;;
43877;SDS011;29815;48.184;11.268;2023-08-21T08:39:11;8.57;;;7.88;;
43877;SDS011;29815;48.184;11.268;2023-08-21T08:41:43;8.43;;;7.45;;
43877;SDS011;29815;48.184;11.268;2023-08-21T08:44:23;6.95;;;6.32;;
43877;SDS011;29815;48.184;11.268;2023-08-21T08:46:54;7.00;;;6.22;;
43877;SDS011;29815;48.184;11.268;2023-08-21T08:49:25;6.93;;;6.10;;
43877;SDS011;29815;48.184;11.268;2023-08-21T08:51:56;7.78;;;7.05;;
43877;SDS011;29815;48.184;11.268;2023-08-21T08:54:28;8.50;;;6.95;;
43877;SDS011;29815;48.184;11.268;2023-08-21T08:56:59;9.13;;;7.05;;
43877;SDS011;29815;48.184;11.268;2023-08-21T08:59:29;8.20;;;7.38;;
43877;SDS011;29815;48.184;11.268;2023-08-21T09:01:59;7.45;;;6.85;;
43877;SDS011;29815;48.184;11.268;2023-08-21T09:04:29;7.18;;;6.47;;
43877;SDS011;29815;48.184;11.268;2023-08-21T09:07:07;7.00;;;6.22;;
43877;SDS011;29815;48.184;11.268;2023-08-21T09:09:37;8.25;;;7.45;;
43877;SDS011;29815;48.184;11.268;2023-08-21T09:12:09;7.88;;;7.07;;
43877;SDS011;29815;48.184;11.268;2023-08-21T09:14:42;8.27;;;7.60;;
43877;SDS011;29815;48.184;11.268;2023-08-21T09:17:13;7.32;;;6.57;;
43877;SDS011;29815;48.184;11.268;2023-08-21T09:19:43;7.05;;;6.32;;
43877;SDS011;29815;48.184;11.268;2023-08-21T09:22:15;7.60;;;6.75;;
43877;SDS011;29815;48.184;11.268;2023-08-21T09:24:59;6.95;;;6.35;;
43877;SDS011;29815;48.184;11.268;2023-08-21T09:27:34;7.10;;;6.50;;
43877;SDS011;29815;48.184;11.268;2023-08-21T09:30:05;7.95;;;7.15;;
43877;SDS011;29815;48.184;11.268;2023-08-21T09:32:54;7.40;;;6.65;;
43877;SDS011;29815;48.184;11.268;2023-08-21T09:35:28;8.32;;;7.32;;
43877;SDS011;29815;48.184;11.268;2023-08-21T09:38:03;8.68;;;6.88;;
43877;SDS011;29815;48.184;11.268;2023-08-21T09:40:34;8.73;;;7.55;;
43877;SDS011;29815;48.184;11.268;2023-08-21T09:43:08;7.30;;;6.60;;
43877;SDS011;29815;48.184;11.268;2023-08-21T09:45:38;6.93;;;6.32;;
43877;SDS011;29815;48.184;11.268;2023-08-21T09:48:08;7.80;;;7.00;;
43877;SDS011;29815;48.184;11.268;2023-08-21T09:50:38;7.95;;;7.32;;
43877;SDS011;29815;48.184;11.268;2023-08-21T09:53:09;6.85;;;6.25;;
43877;SDS011;29815;48.184;11.268;2023-08-21T09:55:58;7.30;;;6.60;;
43877;SDS011;29815;48.184;11.268;2023-08-21T09:58:31;7.50;;;6.80;;
43877;SDS011;29815;48.184;11.268;2023-08-21T10:01:01;6.88;;;6.22;;
43877;SDS011;29815;48.184;11.268;2023-08-21T10:03:39;6.93;;;6.32;;
43877;SDS011;29815;48.184;11.268;2023-08-21T10:06:16;6.63;;;6.03;;
43877;SDS011;29815;48.184;11.268;2023-08-21T10:08:52;7.43;;;6.63;;
43877;SDS011;29815;48.184;11.268;2023-08-21T10:11:23;6.53;;;5.90;;
43877;SDS011;29815;48.184;11.268;2023-08-21T10:13:52;7.90;;;7.10;;
43877;SDS011;29815;48.184;11.268;2023-08-21T10:16:23;7.30;;;6.70;;
43877;SDS011;29815;48.184;11.268;2023-08-21T10:18:53;7.68;;;6.47;;
43877;SDS011;29815;48.184;11.268;2023-08-21T10:21:23;6.75;;;5.82;;
43877;SDS011;29815;48.184;11.268;2023-08-21T10:23:57;7.32;;;6.60;;
43877;SDS011;29815;48.184;11.268;2023-08-21T10:26:29;7.90;;;6.35;;
43877;SDS011;29815;48.184;11.268;2023-08-21T10:29:01;6.63;;;6.03;;
43877;SDS011;29815;48.184;11.268;2023-08-21T10:31:35;7.35;;;6.63;;
43877;SDS011;29815;48.184;11.268;2023-08-21T10:34:07;6.60;;;6.00;;
43877;SDS011;29815;48.184;11.268;2023-08-21T10:36:39;6.50;;;5.90;;
43877;SDS011;29815;48.184;11.268;2023-08-21T10:39:39;7.07;;;6.38;;
43877;SDS011;29815;48.184;11.268;2023-08-21T10:42:36;8.23;;;5.90;;
43877;SDS011;29815;48.184;11.268;2023-08-21T10:45:12;7.82;;;6.20;;
43877;SDS011;29815;48.184;11.268;2023-08-21T10:47:42;6.68;;;6.13;;
43877;SDS011;29815;48.184;11.268;2023-08-21T10:50:14;6.45;;;5.50;;
43877;SDS011;29815;48.184;11.268;2023-08-21T10:52:44;6.78;;;5.68;;
43877;SDS011;29815;48.184;11.268;2023-08-21T10:55:15;6.80;;;6.18;;
43877;SDS011;29815;48.184;11.268;2023-08-21T10:57:46;5.70;;;5.15;;
43877;SDS011;29815;48.184;11.268;2023-08-21T11:00:18;4.78;;;3.85;;
43877;SDS011;29815;48.184;11.268;2023-08-21T11:02:48;5.20;;;4.70;;
43877;SDS011;29815;48.184;11.268;2023-08-21T11:05:19;8.27;;;4.78;;
43877;SDS011;29815;48.184;11.268;2023-08-21T11:07:48;4.70;;;4.30;;
43877;SDS011;29815;48.184;11.268;2023-08-21T11:10:21;6.05;;;5.55;;
43877;SDS011;29815;48.184;11.268;2023-08-21T11:12:53;7.00;;;4.95;;
43877;SDS011;29815;48.184;11.268;2023-08-21T11:15:27;5.97;;;4.82;;
43877;SDS011;29815;48.184;11.268;2023-08-21T11:17:58;5.80;;;4.97;;
43877;SDS011;29815;48.184;11.268;2023-08-21T11:20:30;6.10;;;5.60;;
43877;SDS011;29815;48.184;11.268;2023-08-21T11:23:02;6.47;;;5.72;;
43877;SDS011;29815;48.184;11.268;2023-08-21T11:25:37;5.93;;;4.90;;
43877;SDS011;29815;48.184;11.268;2023-08-21T11:28:08;6.05;;;5.45;;
43877;SDS011;29815;48.184;11.268;2023-08-21T11:30:38;7.70;;;5.80;;
43877;SDS011;29815;48.184;11.268;2023-08-21T11:33:08;7.78;;;5.53;;
43877;SDS011;29815;48.184;11.268;2023-08-21T11:35:39;6.80;;;5.70;;
43877;SDS011;29815;48.184;11.268;2023-08-21T11:38:14;5.78;;;5.10;;
43877;SDS011;29815;48.184;11.268;2023-08-21T11:40:54;6.68;;;5.05;;
43877;SDS011;29815;48.184;11.268;2023-08-21T11:43:36;7.72;;;6.60;;
43877;SDS011;29815;48.184;11.268;2023-08-21T11:46:08;8.93;;;6.72;;
43877;SDS011;29815;48.184;11.268;2023-08-21T11:48:40;6.82;;;5.88;;
43877;SDS011;29815;48.184;11.268;2023-08-21T11:51:11;8.13;;;6.10;;
43877;SDS011;29815;48.184;11.268;2023-08-21T11:53:41;7.85;;;5.75;;
43877;SDS011;29815;48.184;11.268;2023-08-21T11:56:12;7.45;;;5.30;;
43877;SDS011;29815;48.184;11.268;2023-08-21T11:58:44;5.82;;;5.32;;
43877;SDS011;29815;48.184;11.268;2023-08-21T12:01:16;7.18;;;5.80;;
43877;SDS011;29815;48.184;11.268;2023-08-21T12:03:46;5.75;;;5.13;;
43877;SDS011;29815;48.184;11.268;2023-08-21T12:06:22;9.48;;;5.65;;
43877;SDS011;29815;48.184;11.268;2023-08-21T12:08:53;9.07;;;5.40;;
43877;SDS011;29815;48.184;11.268;2023-08-21T12:11:25;8.73;;;5.35;;
43877;SDS011;29815;48.184;11.268;2023-08-21T12:13:55;5.72;;;5.22;;
43877;SDS011;29815;48.184;11.268;2023-08-21T12:16:24;6.50;;;5.60;;
43877;SDS011;29815;48.184;11.268;2023-08-21T12:18:54;6.20;;;5.32;;
43877;SDS011;29815;48.184;11.268;2023-08-21T12:21:24;6.35;;;5.60;;
43877;SDS011;29815;48.184;11.268;2023-08-21T12:23:54;5.90;;;5.25;;
43877;SDS011;29815;48.184;11.268;2023-08-21T12:26:25;7.88;;;5.40;;
43877;SDS011;29815;48.184;11.268;2023-08-21T12:29:03;8.35;;;5.35;;
43877;SDS011;29815;48.184;11.268;2023-08-21T12:31:33;6.22;;;5.35;;
43877;SDS011;29815;48.184;11.268;2023-08-21T12:36:34;7.35;;;5.78;;
43877;SDS011;29815;48.184;11.268;2023-08-21T12:39:05;5.88;;;5.25;;
43877;SDS011;29815;48.184;11.268;2023-08-21T12:44:07;6.38;;;5.70;;
43877;SDS011;29815;48.184;11.268;2023-08-21T12:46:36;7.25;;;5.15;;
43877;SDS011;29815;48.184;11.268;2023-08-21T12:49:06;6.85;;;5.28;;
43877;SDS011;29815;48.184;11.268;2023-08-21T12:51:36;5.32;;;4.63;;
43877;SDS011;29815;48.184;11.268;2023-08-21T12:54:06;5.10;;;4.45;;
43877;SDS011;29815;48.184;11.268;2023-08-21T12:56:38;11.73;;;5.07;;
43877;SDS011;29815;48.184;11.268;2023-08-21T12:59:07;6.07;;;5.20;;
43877;SDS011;29815;48.184;11.268;2023-08-21T13:01:37;7.65;;;5.05;;
43877;SDS011;29815;48.184;11.268;2023-08-21T13:04:07;6.10;;;4.82;;
43877;SDS011;29815;48.184;11.268;2023-08-21T13:06:36;6.40;;;5.07;;
43877;SDS011;29815;48.184;11.268;2023-08-21T13:09:06;5.57;;;4.97;;
43877;SDS011;29815;48.184;11.268;2023-08-21T13:11:37;7.60;;;5.50;;
43877;SDS011;29815;48.184;11.268;2023-08-21T13:14:07;6.63;;;5.28;;
43877;SDS011;29815;48.184;11.268;2023-08-21T13:16:36;7.63;;;5.65;;
43877;SDS011;29815;48.184;11.268;2023-08-21T13:19:06;5.78;;;5.13;;
43877;SDS011;29815;48.184;11.268;2023-08-21T13:21:35;6.00;;;5.15;;
43877;SDS011;29815;48.184;11.268;2023-08-21T13:24:05;7.38;;;5.40;;
43877;SDS011;29815;48.184;11.268;2023-08-21T13:26:35;7.63;;;5.65;;
43877;SDS011;29815;48.184;11.268;2023-08-21T13:29:06;9.75;;;5.40;;
43877;SDS011;29815;48.184;11.268;2023-08-21T13:31:35;5.70;;;4.90;;
43877;SDS011;29815;48.184;11.268;2023-08-21T13:34:05;6.00;;;5.03;;
43877;SDS011;29815;48.184;11.268;2023-08-21T13:36:35;6.50;;;5.25;;
43877;SDS011;29815;48.184;11.268;2023-08-21T13:39:06;8.13;;;5.80;;
43877;SDS011;29815;48.184;11.268;2023-08-21T13:41:39;6.05;;;5.45;;
43877;SDS011;29815;48.184;11.268;2023-08-21T13:44:09;8.82;;;5.88;;
43877;SDS011;29815;48.184;11.268;2023-08-21T13:46:38;8.02;;;5.60;;
43877;SDS011;29815;48.184;11.268;2023-08-21T13:49:08;5.55;;;4.85;;
43877;SDS011;29815;48.184;11.268;2023-08-21T13:51:38;5.30;;;4.80;;
43877;SDS011;29815;48.184;11.268;2023-08-21T13:54:07;6.63;;;4.47;;
43877;SDS011;29815;48.184;11.268;2023-08-21T13:56:37;8.63;;;5.22;;
43877;SDS011;29815;48.184;11.268;2023-08-21T13:59:08;6.70;;;5.38;;
43877;SDS011;29815;48.184;11.268;2023-08-21T14:01:37;7.15;;;6.35;;
43877;SDS011;29815;48.184;11.268;2023-08-21T14:04:07;8.35;;;5.88;;
43877;SDS011;29815;48.184;11.268;2023-08-21T14:06:37;5.40;;;4.88;;
43877;SDS011;29815;48.184;11.268;2023-08-21T14:09:06;7.82;;;4.80;;
43877;SDS011;29815;48.184;11.268;2023-08-21T14:11:36;5.53;;;5.03;;
43877;SDS011;29815;48.184;11.268;2023-08-21T14:14:06;6.57;;;4.85;;
43877;SDS011;29815;48.184;11.268;2023-08-21T14:16:36;5.78;;;5.18;;
43877;SDS011;29815;48.184;11.268;2023-08-21T14:19:06;5.97;;;5.45;;
43877;SDS011;29815;48.184;11.268;2023-08-21T14:21:35;5.75;;;4.93;;
43877;SDS011;29815;48.184;11.268;2023-08-21T14:24:05;9.50;;;7.03;;
43877;SDS011;29815;48.184;11.268;2023-08-21T14:26:35;5.38;;;4.93;;
43877;SDS011;29815;48.184;11.268;2023-08-21T14:29:08;6.72;;;5.05;;
43877;SDS011;29815;48.184;11.268;2023-08-21T14:31:38;9.63;;;4.65;;
43877;SDS011;29815;48.184;11.268;2023-08-21T14:34:07;7.35;;;5.63;;
43877;SDS011;29815;48.184;11.268;2023-08-21T14:36:37;6.43;;;5.53;;
43877;SDS011;29815;48.184;11.268;2023-08-21T14:39:07;5.93;;;4.88;;
43877;SDS011;29815;48.184;11.268;2023-08-21T14:41:38;5.50;;;5.00;;
43877;SDS011;29815;48.184;11.268;2023-08-21T14:46:42;6.43;;;5.13;;
43877;SDS011;29815;48.184;11.268;2023-08-21T14:49:11;8.65;;;5.20;;
43877;SDS011;29815;48.184;11.268;2023-08-21T14:51:41;8.33;;;5.57;;
43877;SDS011;29815;48.184;11.268;2023-08-21T14:54:11;8.77;;;5.53;;
43877;SDS011;29815;48.184;11.268;2023-08-21T14:56:41;5.78;;;5.10;;
43877;SDS011;29815;48.184;11.268;2023-08-21T14:59:12;9.90;;;5.72;;